sensor_id;sensor_type;location;lat;lon;timestamp;P1;durP1;ratioP1;P2;durP2;ratioP2
13349;SDS011;6744;53.190;6.576;2023-05-07T00:01:45;18.30;;;16.37;;
13349;SDS011;6744;53.190;6.576;2023-05-07T00:04:10;18.83;;;16.83;;
13349;SDS011;6744;53.190;6.576;2023-05-07T00:06:36;17.77;;;15.93;;
13349;SDS011;6744;53.190;6.576;2023-05-07T00:09:02;16.90;;;15.30;;
13349;SDS011;6744;53.190;6.576;2023-05-07T00:11:28;19.60;;;15.87;;
13349;SDS011;6744;53.190;6.576;2023-05-07T00:13:53;19.60;;;17.13;;
13349;SDS011;6744;53.190;6.576;2023-05-07T00:16:19;18.50;;;16.50;;
13349;SDS011;6744;53.190;6.576;2023-05-07T00:18:44;17.80;;;16.00;;
13349;SDS011;6744;53.190;6.576;2023-05-07T00:21:10;18.63;;;16.73;;
13349;SDS011;6744;53.190;6.576;2023-05-07T00:23:35;19.03;;;17.00;;
13349;SDS011;6744;53.190;6.576;2023-05-07T00:26:01;17.67;;;15.87;;
13349;SDS011;6744;53.190;6.576;2023-05-07T00:28:29;18.93;;;16.30;;
13349;SDS011;6744;53.190;6.576;2023-05-07T00:30:54;19.23;;;16.97;;
13349;SDS011;6744;53.190;6.576;2023-05-07T00:33:20;20.40;;;16.83;;
13349;SDS011;6744;53.190;6.576;2023-05-07T00:35:45;18.23;;;16.10;;
13349;SDS011;6744;53.190;6.576;2023-05-07T00:38:11;21.30;;;18.60;;
13349;SDS011;6744;53.190;6.576;2023-05-07T00:40:36;19.60;;;17.50;;
13349;SDS011;6744;53.190;6.576;2023-05-07T00:43:02;21.30;;;18.13;;
13349;SDS011;6744;53.190;6.576;2023-05-07T00:45:27;17.23;;;15.40;;
13349;SDS011;6744;53.190;6.576;2023-05-07T00:47:54;19.63;;;17.30;;
13349;SDS011;6744;53.190;6.576;2023-05-07T00:50:20;17.93;;;16.13;;
13349;SDS011;6744;53.190;6.576;2023-05-07T00:52:46;19.27;;;16.80;;
13349;SDS011;6744;53.190;6.576;2023-05-07T00:55:11;18.10;;;16.23;;
13349;SDS011;6744;53.190;6.576;2023-05-07T00:57:39;19.47;;;17.37;;
13349;SDS011;6744;53.190;6.576;2023-05-07T01:00:06;18.97;;;16.97;;
13349;SDS011;6744;53.190;6.576;2023-05-07T01:02:34;21.00;;;18.33;;
13349;SDS011;6744;53.190;6.576;2023-05-07T01:05:00;24.60;;;20.43;;
13349;SDS011;6744;53.190;6.576;2023-05-07T01:07:25;21.40;;;19.10;;
13349;SDS011;6744;53.190;6.576;2023-05-07T01:09:52;22.60;;;19.23;;
13349;SDS011;6744;53.190;6.576;2023-05-07T01:12:17;23.83;;;19.90;;
13349;SDS011;6744;53.190;6.576;2023-05-07T01:14:42;24.47;;;19.43;;
13349;SDS011;6744;53.190;6.576;2023-05-07T01:17:08;20.83;;;18.60;;
13349;SDS011;6744;53.190;6.576;2023-05-07T01:19:33;22.80;;;19.70;;
13349;SDS011;6744;53.190;6.576;2023-05-07T01:22:07;21.57;;;19.30;;
13349;SDS011;6744;53.190;6.576;2023-05-07T01:24:34;23.53;;;21.00;;
13349;SDS011;6744;53.190;6.576;2023-05-07T01:27:01;22.87;;;18.90;;
13349;SDS011;6744;53.190;6.576;2023-05-07T01:29:27;24.80;;;22.17;;
13349;SDS011;6744;53.190;6.576;2023-05-07T01:31:53;24.93;;;22.13;;
13349;SDS011;6744;53.190;6.576;2023-05-07T01:34:19;22.20;;;19.90;;
13349;SDS011;6744;53.190;6.576;2023-05-07T01:36:46;22.77;;;20.20;;
13349;SDS011;6744;53.190;6.576;2023-05-07T01:39:12;22.87;;;19.90;;
13349;SDS011;6744;53.190;6.576;2023-05-07T01:41:37;24.40;;;21.90;;
13349;SDS011;6744;53.190;6.576;2023-05-07T01:44:03;22.07;;;19.77;;
13349;SDS011;6744;53.190;6.576;2023-05-07T01:46:29;23.37;;;20.87;;
13349;SDS011;6744;53.190;6.576;2023-05-07T01:48:55;23.07;;;20.67;;
13349;SDS011;6744;53.190;6.576;2023-05-07T01:51:20;24.43;;;21.07;;
13349;SDS011;6744;53.190;6.576;2023-05-07T01:53:47;27.57;;;23.03;;
13349;SDS011;6744;53.190;6.576;2023-05-07T01:56:15;21.60;;;19.30;;
13349;SDS011;6744;53.190;6.576;2023-05-07T01:58:41;22.20;;;19.83;;
13349;SDS011;6744;53.190;6.576;2023-05-07T02:01:07;24.57;;;20.80;;
13349;SDS011;6744;53.190;6.576;2023-05-07T02:03:32;22.10;;;19.77;;
13349;SDS011;6744;53.190;6.576;2023-05-07T02:05:57;21.27;;;19.13;;
13349;SDS011;6744;53.190;6.576;2023-05-07T02:08:23;23.13;;;20.70;;
13349;SDS011;6744;53.190;6.576;2023-05-07T02:10:48;23.90;;;20.67;;
13349;SDS011;6744;53.190;6.576;2023-05-07T02:13:14;20.53;;;18.37;;
13349;SDS011;6744;53.190;6.576;2023-05-07T02:15:40;22.17;;;18.13;;
13349;SDS011;6744;53.190;6.576;2023-05-07T02:18:06;22.20;;;19.80;;
13349;SDS011;6744;53.190;6.576;2023-05-07T02:20:32;24.80;;;21.17;;
13349;SDS011;6744;53.190;6.576;2023-05-07T02:22:58;22.07;;;19.67;;
13349;SDS011;6744;53.190;6.576;2023-05-07T02:25:23;22.53;;;20.13;;
13349;SDS011;6744;53.190;6.576;2023-05-07T02:27:51;24.70;;;21.07;;
13349;SDS011;6744;53.190;6.576;2023-05-07T02:30:17;26.20;;;22.20;;
13349;SDS011;6744;53.190;6.576;2023-05-07T02:32:42;25.07;;;21.20;;
13349;SDS011;6744;53.190;6.576;2023-05-07T02:35:08;23.73;;;19.93;;
13349;SDS011;6744;53.190;6.576;2023-05-07T02:37:33;22.73;;;20.27;;
13349;SDS011;6744;53.190;6.576;2023-05-07T02:39:58;29.93;;;24.33;;
13349;SDS011;6744;53.190;6.576;2023-05-07T02:42:24;25.43;;;21.17;;
13349;SDS011;6744;53.190;6.576;2023-05-07T02:44:49;24.37;;;20.77;;
13349;SDS011;6744;53.190;6.576;2023-05-07T02:47:14;24.83;;;21.27;;
13349;SDS011;6744;53.190;6.576;2023-05-07T02:49:40;26.23;;;21.80;;
13349;SDS011;6744;53.190;6.576;2023-05-07T02:52:05;26.80;;;23.33;;
13349;SDS011;6744;53.190;6.576;2023-05-07T02:54:31;23.27;;;20.50;;
13349;SDS011;6744;53.190;6.576;2023-05-07T02:56:57;24.13;;;21.70;;
13349;SDS011;6744;53.190;6.576;2023-05-07T02:59:23;23.93;;;20.83;;
13349;SDS011;6744;53.190;6.576;2023-05-07T03:01:48;25.90;;;21.57;;
13349;SDS011;6744;53.190;6.576;2023-05-07T03:04:14;24.60;;;21.73;;
13349;SDS011;6744;53.190;6.576;2023-05-07T03:06:39;28.80;;;24.63;;
13349;SDS011;6744;53.190;6.576;2023-05-07T03:09:04;23.60;;;20.23;;
13349;SDS011;6744;53.190;6.576;2023-05-07T03:11:30;27.53;;;22.70;;
13349;SDS011;6744;53.190;6.576;2023-05-07T03:13:55;25.70;;;20.57;;
13349;SDS011;6744;53.190;6.576;2023-05-07T03:16:20;24.47;;;21.23;;
13349;SDS011;6744;53.190;6.576;2023-05-07T03:18:46;27.23;;;22.63;;
13349;SDS011;6744;53.190;6.576;2023-05-07T03:21:11;24.73;;;21.83;;
13349;SDS011;6744;53.190;6.576;2023-05-07T03:23:37;24.47;;;21.77;;
13349;SDS011;6744;53.190;6.576;2023-05-07T03:26:02;26.73;;;22.33;;
13349;SDS011;6744;53.190;6.576;2023-05-07T03:28:30;25.33;;;21.47;;
13349;SDS011;6744;53.190;6.576;2023-05-07T03:30:55;28.37;;;23.27;;
13349;SDS011;6744;53.190;6.576;2023-05-07T03:33:21;31.77;;;24.97;;
13349;SDS011;6744;53.190;6.576;2023-05-07T03:35:46;25.77;;;21.53;;
13349;SDS011;6744;53.190;6.576;2023-05-07T03:38:11;26.00;;;21.77;;
13349;SDS011;6744;53.190;6.576;2023-05-07T03:40:37;26.83;;;21.63;;
13349;SDS011;6744;53.190;6.576;2023-05-07T03:43:02;28.73;;;22.67;;
13349;SDS011;6744;53.190;6.576;2023-05-07T03:45:27;25.60;;;22.27;;
13349;SDS011;6744;53.190;6.576;2023-05-07T03:47:53;33.97;;;26.67;;
13349;SDS011;6744;53.190;6.576;2023-05-07T03:50:19;26.33;;;22.07;;
13349;SDS011;6744;53.190;6.576;2023-05-07T03:52:44;28.00;;;23.43;;
13349;SDS011;6744;53.190;6.576;2023-05-07T03:55:10;26.03;;;22.40;;
13349;SDS011;6744;53.190;6.576;2023-05-07T03:57:35;26.63;;;20.60;;
13349;SDS011;6744;53.190;6.576;2023-05-07T04:00:00;27.17;;;23.40;;
13349;SDS011;6744;53.190;6.576;2023-05-07T04:02:26;30.70;;;24.73;;
13349;SDS011;6744;53.190;6.576;2023-05-07T04:04:51;25.57;;;21.93;;
13349;SDS011;6744;53.190;6.576;2023-05-07T04:07:17;28.97;;;23.33;;
13349;SDS011;6744;53.190;6.576;2023-05-07T04:09:42;29.43;;;23.50;;
13349;SDS011;6744;53.190;6.576;2023-05-07T04:12:16;27.77;;;23.80;;
13349;SDS011;6744;53.190;6.576;2023-05-07T04:14:42;23.83;;;21.33;;
13349;SDS011;6744;53.190;6.576;2023-05-07T04:17:07;24.23;;;20.90;;
13349;SDS011;6744;53.190;6.576;2023-05-07T04:19:34;25.10;;;21.77;;
13349;SDS011;6744;53.190;6.576;2023-05-07T04:22:00;28.47;;;21.97;;
13349;SDS011;6744;53.190;6.576;2023-05-07T04:24:25;27.87;;;22.87;;
13349;SDS011;6744;53.190;6.576;2023-05-07T04:26:51;25.77;;;22.00;;
13349;SDS011;6744;53.190;6.576;2023-05-07T04:29:17;28.70;;;23.97;;
13349;SDS011;6744;53.190;6.576;2023-05-07T04:31:43;22.73;;;20.33;;
13349;SDS011;6744;53.190;6.576;2023-05-07T04:34:11;24.87;;;21.53;;
13349;SDS011;6744;53.190;6.576;2023-05-07T04:36:37;31.27;;;26.30;;
13349;SDS011;6744;53.190;6.576;2023-05-07T04:39:03;25.17;;;21.10;;
13349;SDS011;6744;53.190;6.576;2023-05-07T04:41:28;29.53;;;23.27;;
13349;SDS011;6744;53.190;6.576;2023-05-07T04:43:54;23.93;;;21.30;;
13349;SDS011;6744;53.190;6.576;2023-05-07T04:46:19;24.17;;;21.57;;
13349;SDS011;6744;53.190;6.576;2023-05-07T04:48:45;26.90;;;21.93;;
13349;SDS011;6744;53.190;6.576;2023-05-07T04:51:10;24.70;;;20.87;;
13349;SDS011;6744;53.190;6.576;2023-05-07T04:53:35;21.67;;;18.73;;
13349;SDS011;6744;53.190;6.576;2023-05-07T04:56:02;24.93;;;21.53;;
13349;SDS011;6744;53.190;6.576;2023-05-07T04:58:27;22.23;;;19.33;;
13349;SDS011;6744;53.190;6.576;2023-05-07T05:00:56;26.63;;;21.73;;
13349;SDS011;6744;53.190;6.576;2023-05-07T05:03:21;28.77;;;22.97;;
13349;SDS011;6744;53.190;6.576;2023-05-07T05:05:48;23.90;;;21.23;;
13349;SDS011;6744;53.190;6.576;2023-05-07T05:08:14;23.80;;;18.47;;
13349;SDS011;6744;53.190;6.576;2023-05-07T05:10:39;21.90;;;18.90;;
13349;SDS011;6744;53.190;6.576;2023-05-07T05:13:06;26.00;;;20.97;;
13349;SDS011;6744;53.190;6.576;2023-05-07T05:15:32;23.53;;;18.97;;
13349;SDS011;6744;53.190;6.576;2023-05-07T05:17:57;23.87;;;19.77;;
13349;SDS011;6744;53.190;6.576;2023-05-07T05:20:22;23.50;;;20.90;;
13349;SDS011;6744;53.190;6.576;2023-05-07T05:22:47;23.77;;;21.17;;
13349;SDS011;6744;53.190;6.576;2023-05-07T05:25:13;22.60;;;20.00;;
13349;SDS011;6744;53.190;6.576;2023-05-07T05:27:38;21.47;;;19.17;;
13349;SDS011;6744;53.190;6.576;2023-05-07T05:30:09;20.87;;;18.20;;
13349;SDS011;6744;53.190;6.576;2023-05-07T05:32:35;22.20;;;19.63;;
13349;SDS011;6744;53.190;6.576;2023-05-07T05:35:01;21.77;;;18.47;;
13349;SDS011;6744;53.190;6.576;2023-05-07T05:37:26;23.60;;;19.70;;
13349;SDS011;6744;53.190;6.576;2023-05-07T05:39:52;24.13;;;20.30;;
13349;SDS011;6744;53.190;6.576;2023-05-07T05:42:17;27.37;;;21.73;;
13349;SDS011;6744;53.190;6.576;2023-05-07T05:44:43;24.47;;;20.23;;
13349;SDS011;6744;53.190;6.576;2023-05-07T05:47:08;19.73;;;17.50;;
13349;SDS011;6744;53.190;6.576;2023-05-07T05:49:33;21.77;;;19.43;;
13349;SDS011;6744;53.190;6.576;2023-05-07T05:51:59;21.23;;;18.93;;
13349;SDS011;6744;53.190;6.576;2023-05-07T05:54:24;22.67;;;19.97;;
13349;SDS011;6744;53.190;6.576;2023-05-07T05:56:50;25.33;;;22.73;;
13349;SDS011;6744;53.190;6.576;2023-05-07T05:59:15;22.17;;;19.97;;
13349;SDS011;6744;53.190;6.576;2023-05-07T06:01:41;27.10;;;24.50;;
13349;SDS011;6744;53.190;6.576;2023-05-07T06:04:06;22.43;;;20.33;;
13349;SDS011;6744;53.190;6.576;2023-05-07T06:06:31;24.57;;;22.07;;
13349;SDS011;6744;53.190;6.576;2023-05-07T06:08:57;22.20;;;20.10;;
13349;SDS011;6744;53.190;6.576;2023-05-07T06:11:22;21.27;;;19.27;;
13349;SDS011;6744;53.190;6.576;2023-05-07T06:13:48;21.87;;;19.67;;
13349;SDS011;6744;53.190;6.576;2023-05-07T06:16:13;20.83;;;18.83;;
13349;SDS011;6744;53.190;6.576;2023-05-07T06:18:40;21.73;;;19.63;;
13349;SDS011;6744;53.190;6.576;2023-05-07T06:21:14;20.27;;;18.33;;
13349;SDS011;6744;53.190;6.576;2023-05-07T06:23:40;19.17;;;17.37;;
13349;SDS011;6744;53.190;6.576;2023-05-07T06:26:06;20.17;;;18.27;;
13349;SDS011;6744;53.190;6.576;2023-05-07T06:28:31;20.37;;;18.53;;
13349;SDS011;6744;53.190;6.576;2023-05-07T06:31:16;20.97;;;19.07;;
13349;SDS011;6744;53.190;6.576;2023-05-07T06:33:45;20.50;;;18.50;;
13349;SDS011;6744;53.190;6.576;2023-05-07T06:36:10;21.70;;;19.50;;
13349;SDS011;6744;53.190;6.576;2023-05-07T06:38:36;22.13;;;19.93;;
13349;SDS011;6744;53.190;6.576;2023-05-07T06:41:01;20.13;;;18.13;;
13349;SDS011;6744;53.190;6.576;2023-05-07T06:43:26;19.50;;;17.70;;
13349;SDS011;6744;53.190;6.576;2023-05-07T06:45:52;20.70;;;18.77;;
13349;SDS011;6744;53.190;6.576;2023-05-07T06:48:17;20.83;;;18.83;;
13349;SDS011;6744;53.190;6.576;2023-05-07T06:50:42;21.73;;;19.53;;
13349;SDS011;6744;53.190;6.576;2023-05-07T06:53:08;20.83;;;18.80;;
13349;SDS011;6744;53.190;6.576;2023-05-07T06:55:33;22.43;;;20.37;;
13349;SDS011;6744;53.190;6.576;2023-05-07T06:57:58;21.27;;;19.27;;
13349;SDS011;6744;53.190;6.576;2023-05-07T07:00:26;19.17;;;16.53;;
13349;SDS011;6744;53.190;6.576;2023-05-07T07:02:52;18.97;;;17.17;;
13349;SDS011;6744;53.190;6.576;2023-05-07T07:05:17;19.80;;;17.40;;
13349;SDS011;6744;53.190;6.576;2023-05-07T07:07:43;22.23;;;20.07;;
13349;SDS011;6744;53.190;6.576;2023-05-07T07:10:08;20.07;;;18.07;;
13349;SDS011;6744;53.190;6.576;2023-05-07T07:12:34;21.83;;;19.73;;
13349;SDS011;6744;53.190;6.576;2023-05-07T07:14:59;20.77;;;18.80;;
13349;SDS011;6744;53.190;6.576;2023-05-07T07:17:24;22.07;;;19.97;;
13349;SDS011;6744;53.190;6.576;2023-05-07T07:19:50;22.83;;;20.27;;
13349;SDS011;6744;53.190;6.576;2023-05-07T07:22:16;23.63;;;21.23;;
13349;SDS011;6744;53.190;6.576;2023-05-07T07:24:41;23.60;;;21.30;;
13349;SDS011;6744;53.190;6.576;2023-05-07T07:27:06;21.33;;;19.13;;
13349;SDS011;6744;53.190;6.576;2023-05-07T07:29:32;23.67;;;21.33;;
13349;SDS011;6744;53.190;6.576;2023-05-07T07:32:00;20.90;;;19.00;;
13349;SDS011;6744;53.190;6.576;2023-05-07T07:34:26;21.57;;;19.43;;
13349;SDS011;6744;53.190;6.576;2023-05-07T07:36:51;22.10;;;20.00;;
13349;SDS011;6744;53.190;6.576;2023-05-07T07:39:16;21.20;;;19.20;;
13349;SDS011;6744;53.190;6.576;2023-05-07T07:41:42;22.47;;;20.27;;
13349;SDS011;6744;53.190;6.576;2023-05-07T07:44:07;22.23;;;20.13;;
13349;SDS011;6744;53.190;6.576;2023-05-07T07:46:33;20.90;;;18.80;;
13349;SDS011;6744;53.190;6.576;2023-05-07T07:48:59;22.03;;;19.80;;
13349;SDS011;6744;53.190;6.576;2023-05-07T07:51:25;23.43;;;21.03;;
13349;SDS011;6744;53.190;6.576;2023-05-07T07:53:53;24.40;;;21.93;;
13349;SDS011;6744;53.190;6.576;2023-05-07T07:56:18;22.90;;;20.57;;
13349;SDS011;6744;53.190;6.576;2023-05-07T07:58:43;22.67;;;20.47;;
13349;SDS011;6744;53.190;6.576;2023-05-07T08:01:09;20.63;;;18.63;;
13349;SDS011;6744;53.190;6.576;2023-05-07T08:03:34;21.47;;;19.47;;
13349;SDS011;6744;53.190;6.576;2023-05-07T08:06:00;22.20;;;20.03;;
13349;SDS011;6744;53.190;6.576;2023-05-07T08:08:25;24.40;;;22.03;;
13349;SDS011;6744;53.190;6.576;2023-05-07T08:10:51;22.30;;;20.13;;
13349;SDS011;6744;53.190;6.576;2023-05-07T08:13:17;22.43;;;20.33;;
13349;SDS011;6744;53.190;6.576;2023-05-07T08:15:42;23.07;;;20.77;;
13349;SDS011;6744;53.190;6.576;2023-05-07T08:18:08;22.80;;;20.47;;
13349;SDS011;6744;53.190;6.576;2023-05-07T08:20:33;24.23;;;22.00;;
13349;SDS011;6744;53.190;6.576;2023-05-07T08:23:02;21.97;;;19.80;;
13349;SDS011;6744;53.190;6.576;2023-05-07T08:25:27;22.10;;;20.00;;
13349;SDS011;6744;53.190;6.576;2023-05-07T08:27:52;23.03;;;20.80;;
13349;SDS011;6744;53.190;6.576;2023-05-07T08:30:18;21.13;;;19.07;;
13349;SDS011;6744;53.190;6.576;2023-05-07T08:32:43;23.63;;;21.23;;
13349;SDS011;6744;53.190;6.576;2023-05-07T08:35:08;24.00;;;20.63;;
13349;SDS011;6744;53.190;6.576;2023-05-07T08:37:34;23.03;;;20.73;;
13349;SDS011;6744;53.190;6.576;2023-05-07T08:39:59;20.60;;;18.60;;
13349;SDS011;6744;53.190;6.576;2023-05-07T08:42:25;22.37;;;20.17;;
13349;SDS011;6744;53.190;6.576;2023-05-07T08:44:51;21.30;;;19.20;;
13349;SDS011;6744;53.190;6.576;2023-05-07T08:47:19;19.80;;;17.87;;
13349;SDS011;6744;53.190;6.576;2023-05-07T08:49:46;21.03;;;19.00;;
13349;SDS011;6744;53.190;6.576;2023-05-07T08:52:12;23.57;;;21.27;;
13349;SDS011;6744;53.190;6.576;2023-05-07T08:54:37;20.07;;;18.00;;
13349;SDS011;6744;53.190;6.576;2023-05-07T08:57:03;20.40;;;18.33;;
13349;SDS011;6744;53.190;6.576;2023-05-07T08:59:28;20.00;;;18.10;;
13349;SDS011;6744;53.190;6.576;2023-05-07T09:01:54;21.87;;;19.67;;
13349;SDS011;6744;53.190;6.576;2023-05-07T09:04:20;20.50;;;18.40;;
13349;SDS011;6744;53.190;6.576;2023-05-07T09:06:45;23.17;;;20.93;;
13349;SDS011;6744;53.190;6.576;2023-05-07T09:09:14;22.23;;;19.97;;
13349;SDS011;6744;53.190;6.576;2023-05-07T09:11:39;22.03;;;19.83;;
13349;SDS011;6744;53.190;6.576;2023-05-07T09:14:08;24.43;;;22.03;;
13349;SDS011;6744;53.190;6.576;2023-05-07T09:16:33;21.47;;;19.23;;
13349;SDS011;6744;53.190;6.576;2023-05-07T09:18:59;21.33;;;19.23;;
13349;SDS011;6744;53.190;6.576;2023-05-07T09:21:25;21.67;;;19.60;;
13349;SDS011;6744;53.190;6.576;2023-05-07T09:23:52;20.57;;;18.57;;
13349;SDS011;6744;53.190;6.576;2023-05-07T09:26:18;20.97;;;18.93;;
13349;SDS011;6744;53.190;6.576;2023-05-07T09:28:46;22.30;;;19.97;;
13349;SDS011;6744;53.190;6.576;2023-05-07T09:31:11;22.53;;;20.17;;
13349;SDS011;6744;53.190;6.576;2023-05-07T09:33:37;19.83;;;17.97;;
13349;SDS011;6744;53.190;6.576;2023-05-07T09:36:06;19.87;;;17.97;;
13349;SDS011;6744;53.190;6.576;2023-05-07T09:38:33;21.47;;;19.37;;
13349;SDS011;6744;53.190;6.576;2023-05-07T09:41:07;21.30;;;19.30;;
13349;SDS011;6744;53.190;6.576;2023-05-07T09:43:34;19.93;;;17.93;;
13349;SDS011;6744;53.190;6.576;2023-05-07T09:46:24;21.03;;;19.03;;
13349;SDS011;6744;53.190;6.576;2023-05-07T09:48:49;19.17;;;17.23;;
13349;SDS011;6744;53.190;6.576;2023-05-07T09:52:00;20.03;;;18.03;;
13349;SDS011;6744;53.190;6.576;2023-05-07T09:54:11;20.97;;;18.87;;
13349;SDS011;6744;53.190;6.576;2023-05-07T09:56:36;20.13;;;18.23;;
13349;SDS011;6744;53.190;6.576;2023-05-07T09:59:06;19.57;;;17.60;;
13349;SDS011;6744;53.190;6.576;2023-05-07T10:01:35;19.50;;;17.60;;
13349;SDS011;6744;53.190;6.576;2023-05-07T10:04:01;20.50;;;18.60;;
13349;SDS011;6744;53.190;6.576;2023-05-07T10:06:28;19.67;;;17.87;;
13349;SDS011;6744;53.190;6.576;2023-05-07T10:08:58;20.13;;;18.23;;
13349;SDS011;6744;53.190;6.576;2023-05-07T10:11:24;18.97;;;17.07;;
13349;SDS011;6744;53.190;6.576;2023-05-07T10:13:49;19.83;;;17.93;;
13349;SDS011;6744;53.190;6.576;2023-05-07T10:16:18;18.83;;;17.07;;
13349;SDS011;6744;53.190;6.576;2023-05-07T10:18:43;20.67;;;18.57;;
13349;SDS011;6744;53.190;6.576;2023-05-07T10:21:16;19.10;;;17.30;;
13349;SDS011;6744;53.190;6.576;2023-05-07T10:23:46;18.47;;;16.77;;
13349;SDS011;6744;53.190;6.576;2023-05-07T10:26:23;18.13;;;16.43;;
13349;SDS011;6744;53.190;6.576;2023-05-07T10:28:56;18.57;;;16.77;;
13349;SDS011;6744;53.190;6.576;2023-05-07T10:34:21;17.63;;;15.93;;
13349;SDS011;6744;53.190;6.576;2023-05-07T10:36:48;18.60;;;16.90;;
13349;SDS011;6744;53.190;6.576;2023-05-07T10:39:14;20.50;;;18.50;;
13349;SDS011;6744;53.190;6.576;2023-05-07T10:41:39;17.67;;;16.03;;
13349;SDS011;6744;53.190;6.576;2023-05-07T10:44:05;17.60;;;16.10;;
13349;SDS011;6744;53.190;6.576;2023-05-07T10:46:30;16.90;;;15.40;;
13349;SDS011;6744;53.190;6.576;2023-05-07T10:51:25;17.13;;;14.97;;
13349;SDS011;6744;53.190;6.576;2023-05-07T10:56:38;18.57;;;16.97;;
13349;SDS011;6744;53.190;6.576;2023-05-07T11:01:52;16.83;;;15.17;;
13349;SDS011;6744;53.190;6.576;2023-05-07T11:04:19;15.00;;;13.70;;
13349;SDS011;6744;53.190;6.576;2023-05-07T11:17:56;14.03;;;12.83;;
13349;SDS011;6744;53.190;6.576;2023-05-07T11:26:05;14.40;;;13.20;;
13349;SDS011;6744;53.190;6.576;2023-05-07T11:28:37;15.73;;;14.20;;
13349;SDS011;6744;53.190;6.576;2023-05-07T11:31:07;14.03;;;12.73;;
13349;SDS011;6744;53.190;6.576;2023-05-07T11:33:33;15.70;;;14.30;;
13349;SDS011;6744;53.190;6.576;2023-05-07T11:35:59;16.20;;;14.50;;
13349;SDS011;6744;53.190;6.576;2023-05-07T11:38:25;14.63;;;13.43;;
13349;SDS011;6744;53.190;6.576;2023-05-07T11:40:52;13.87;;;12.77;;
13349;SDS011;6744;53.190;6.576;2023-05-07T11:43:18;15.17;;;13.77;;
13349;SDS011;6744;53.190;6.576;2023-05-07T11:45:47;12.93;;;11.93;;
13349;SDS011;6744;53.190;6.576;2023-05-07T11:48:13;15.90;;;14.60;;
13349;SDS011;6744;53.190;6.576;2023-05-07T11:51:01;12.70;;;11.70;;
13349;SDS011;6744;53.190;6.576;2023-05-07T11:53:35;13.63;;;12.40;;
13349;SDS011;6744;53.190;6.576;2023-05-07T11:56:07;13.97;;;12.80;;
13349;SDS011;6744;53.190;6.576;2023-05-07T11:58:39;13.33;;;12.30;;
13349;SDS011;6744;53.190;6.576;2023-05-07T12:01:07;13.97;;;12.83;;
13349;SDS011;6744;53.190;6.576;2023-05-07T12:03:34;13.10;;;12.00;;
13349;SDS011;6744;53.190;6.576;2023-05-07T12:05:59;14.30;;;13.20;;
13349;SDS011;6744;53.190;6.576;2023-05-07T12:08:25;12.40;;;11.20;;
13349;SDS011;6744;53.190;6.576;2023-05-07T12:10:50;13.57;;;12.37;;
13349;SDS011;6744;53.190;6.576;2023-05-07T12:13:23;13.30;;;12.20;;
13349;SDS011;6744;53.190;6.576;2023-05-07T12:15:53;12.70;;;11.67;;
13349;SDS011;6744;53.190;6.576;2023-05-07T12:18:19;13.83;;;12.73;;
13349;SDS011;6744;53.190;6.576;2023-05-07T12:20:45;15.00;;;13.70;;
13349;SDS011;6744;53.190;6.576;2023-05-07T12:23:10;12.80;;;11.60;;
13349;SDS011;6744;53.190;6.576;2023-05-07T12:25:37;13.80;;;12.60;;
13349;SDS011;6744;53.190;6.576;2023-05-07T12:28:07;14.90;;;13.53;;
13349;SDS011;6744;53.190;6.576;2023-05-07T12:30:42;13.23;;;12.10;;
13349;SDS011;6744;53.190;6.576;2023-05-07T12:33:08;12.33;;;11.33;;
13349;SDS011;6744;53.190;6.576;2023-05-07T12:35:36;12.80;;;11.80;;
13349;SDS011;6744;53.190;6.576;2023-05-07T12:38:07;14.00;;;12.90;;
13349;SDS011;6744;53.190;6.576;2023-05-07T12:40:36;14.83;;;13.63;;
13349;SDS011;6744;53.190;6.576;2023-05-07T12:43:02;11.97;;;11.07;;
13349;SDS011;6744;53.190;6.576;2023-05-07T12:45:28;11.40;;;10.50;;
13349;SDS011;6744;53.190;6.576;2023-05-07T12:47:53;14.40;;;13.20;;
13349;SDS011;6744;53.190;6.576;2023-05-07T12:50:19;12.50;;;11.43;;
13349;SDS011;6744;53.190;6.576;2023-05-07T12:52:46;13.40;;;12.30;;
13349;SDS011;6744;53.190;6.576;2023-05-07T12:55:13;12.13;;;11.20;;
13349;SDS011;6744;53.190;6.576;2023-05-07T12:57:41;13.90;;;12.80;;
13349;SDS011;6744;53.190;6.576;2023-05-07T13:00:07;11.40;;;10.50;;
13349;SDS011;6744;53.190;6.576;2023-05-07T13:02:34;12.87;;;11.87;;
13349;SDS011;6744;53.190;6.576;2023-05-07T13:05:02;11.37;;;10.53;;
13349;SDS011;6744;53.190;6.576;2023-05-07T13:07:28;12.77;;;11.57;;
13349;SDS011;6744;53.190;6.576;2023-05-07T13:09:54;13.07;;;11.90;;
13349;SDS011;6744;53.190;6.576;2023-05-07T13:12:19;11.73;;;10.80;;
13349;SDS011;6744;53.190;6.576;2023-05-07T13:14:44;11.10;;;10.20;;
13349;SDS011;6744;53.190;6.576;2023-05-07T13:17:10;11.17;;;10.37;;
13349;SDS011;6744;53.190;6.576;2023-05-07T13:19:35;12.20;;;11.30;;
13349;SDS011;6744;53.190;6.576;2023-05-07T13:22:03;12.33;;;11.27;;
13349;SDS011;6744;53.190;6.576;2023-05-07T13:24:28;11.70;;;10.80;;
13349;SDS011;6744;53.190;6.576;2023-05-07T13:26:54;10.47;;;9.67;;
13349;SDS011;6744;53.190;6.576;2023-05-07T13:29:19;11.43;;;10.53;;
13349;SDS011;6744;53.190;6.576;2023-05-07T13:31:50;12.03;;;11.13;;
13349;SDS011;6744;53.190;6.576;2023-05-07T13:34:15;10.60;;;9.70;;
13349;SDS011;6744;53.190;6.576;2023-05-07T13:36:41;11.57;;;10.67;;
13349;SDS011;6744;53.190;6.576;2023-05-07T13:39:08;11.57;;;10.67;;
13349;SDS011;6744;53.190;6.576;2023-05-07T13:41:34;10.87;;;9.87;;
13349;SDS011;6744;53.190;6.576;2023-05-07T13:43:59;10.00;;;9.10;;
13349;SDS011;6744;53.190;6.576;2023-05-07T13:46:25;10.80;;;9.90;;
13349;SDS011;6744;53.190;6.576;2023-05-07T13:48:50;11.10;;;10.30;;
13349;SDS011;6744;53.190;6.576;2023-05-07T13:51:16;12.03;;;11.13;;
13349;SDS011;6744;53.190;6.576;2023-05-07T13:53:41;12.53;;;11.43;;
13349;SDS011;6744;53.190;6.576;2023-05-07T13:56:07;10.30;;;9.53;;
13349;SDS011;6744;53.190;6.576;2023-05-07T13:58:32;10.40;;;9.60;;
13349;SDS011;6744;53.190;6.576;2023-05-07T14:01:07;10.77;;;9.90;;
13349;SDS011;6744;53.190;6.576;2023-05-07T14:03:32;10.57;;;9.73;;
13349;SDS011;6744;53.190;6.576;2023-05-07T14:05:58;10.80;;;9.90;;
13349;SDS011;6744;53.190;6.576;2023-05-07T14:08:26;10.63;;;9.83;;
13349;SDS011;6744;53.190;6.576;2023-05-07T14:10:54;11.07;;;10.27;;
13349;SDS011;6744;53.190;6.576;2023-05-07T14:13:20;11.60;;;10.57;;
13349;SDS011;6744;53.190;6.576;2023-05-07T14:15:45;9.83;;;9.13;;
13349;SDS011;6744;53.190;6.576;2023-05-07T14:18:15;11.37;;;10.53;;
13349;SDS011;6744;53.190;6.576;2023-05-07T14:20:41;10.47;;;9.67;;
13349;SDS011;6744;53.190;6.576;2023-05-07T14:23:11;10.17;;;9.37;;
13349;SDS011;6744;53.190;6.576;2023-05-07T14:25:39;10.10;;;9.30;;
13349;SDS011;6744;53.190;6.576;2023-05-07T14:28:04;10.33;;;9.53;;
13349;SDS011;6744;53.190;6.576;2023-05-07T14:30:30;9.57;;;8.87;;
13349;SDS011;6744;53.190;6.576;2023-05-07T14:32:55;10.37;;;9.67;;
13349;SDS011;6744;53.190;6.576;2023-05-07T14:35:21;9.00;;;8.30;;
13349;SDS011;6744;53.190;6.576;2023-05-07T14:37:46;9.67;;;8.77;;
13349;SDS011;6744;53.190;6.576;2023-05-07T14:40:11;9.90;;;9.20;;
13349;SDS011;6744;53.190;6.576;2023-05-07T14:42:37;10.40;;;9.63;;
13349;SDS011;6744;53.190;6.576;2023-05-07T14:45:02;12.13;;;11.23;;
13349;SDS011;6744;53.190;6.576;2023-05-07T14:47:28;11.07;;;10.27;;
13349;SDS011;6744;53.190;6.576;2023-05-07T14:49:54;9.43;;;8.73;;
13349;SDS011;6744;53.190;6.576;2023-05-07T14:52:19;9.83;;;9.10;;
13349;SDS011;6744;53.190;6.576;2023-05-07T14:54:45;11.70;;;10.70;;
13349;SDS011;6744;53.190;6.576;2023-05-07T14:57:10;11.07;;;10.07;;
13349;SDS011;6744;53.190;6.576;2023-05-07T14:59:38;10.77;;;9.87;;